sensor_id;sensor_type;location;lat;lon;timestamp;P1;durP1;ratioP1;P2;durP2;ratioP2
50012;SDS011;35901;48.694;9.476;2023-03-19T00:00:04;9.73;;;6.57;;
50012;SDS011;35901;48.694;9.476;2023-03-19T00:02:34;7.37;;;6.00;;
50012;SDS011;35901;48.694;9.476;2023-03-19T00:05:00;7.50;;;6.70;;
50012;SDS011;35901;48.694;9.476;2023-03-19T00:07:25;7.53;;;6.53;;
50012;SDS011;35901;48.694;9.476;2023-03-19T00:09:51;7.90;;;6.00;;
50012;SDS011;35901;48.694;9.476;2023-03-19T00:12:17;8.23;;;6.20;;
50012;SDS011;35901;48.694;9.476;2023-03-19T00:14:42;7.23;;;6.40;;
50012;SDS011;35901;48.694;9.476;2023-03-19T00:17:09;8.87;;;6.87;;
50012;SDS011;35901;48.694;9.476;2023-03-19T00:19:35;7.83;;;6.60;;
50012;SDS011;35901;48.694;9.476;2023-03-19T00:22:00;6.50;;;5.80;;
50012;SDS011;35901;48.694;9.476;2023-03-19T00:24:26;7.53;;;6.63;;
50012;SDS011;35901;48.694;9.476;2023-03-19T00:26:53;8.20;;;6.50;;
50012;SDS011;35901;48.694;9.476;2023-03-19T00:29:19;7.90;;;6.43;;
50012;SDS011;35901;48.694;9.476;2023-03-19T00:31:47;7.40;;;6.10;;
50012;SDS011;35901;48.694;9.476;2023-03-19T00:34:13;7.73;;;6.33;;
50012;SDS011;35901;48.694;9.476;2023-03-19T00:36:42;9.13;;;7.10;;
50012;SDS011;35901;48.694;9.476;2023-03-19T00:39:08;6.83;;;6.07;;
50012;SDS011;35901;48.694;9.476;2023-03-19T00:41:34;8.03;;;6.93;;
50012;SDS011;35901;48.694;9.476;2023-03-19T00:44:00;7.63;;;6.67;;
50012;SDS011;35901;48.694;9.476;2023-03-19T00:46:28;8.83;;;6.97;;
50012;SDS011;35901;48.694;9.476;2023-03-19T00:48:54;9.23;;;7.20;;
50012;SDS011;35901;48.694;9.476;2023-03-19T00:51:20;10.40;;;7.70;;
50012;SDS011;35901;48.694;9.476;2023-03-19T00:53:47;8.87;;;7.63;;
50012;SDS011;35901;48.694;9.476;2023-03-19T00:56:14;7.97;;;7.17;;
50012;SDS011;35901;48.694;9.476;2023-03-19T00:58:42;8.97;;;7.73;;
50012;SDS011;35901;48.694;9.476;2023-03-19T01:01:09;8.53;;;7.30;;
50012;SDS011;35901;48.694;9.476;2023-03-19T01:03:36;7.63;;;6.50;;
50012;SDS011;35901;48.694;9.476;2023-03-19T01:06:03;9.20;;;6.90;;
50012;SDS011;35901;48.694;9.476;2023-03-19T01:08:30;8.10;;;6.77;;
50012;SDS011;35901;48.694;9.476;2023-03-19T01:10:56;9.57;;;7.13;;
50012;SDS011;35901;48.694;9.476;2023-03-19T01:13:28;7.13;;;6.43;;
50012;SDS011;35901;48.694;9.476;2023-03-19T01:15:54;8.57;;;7.43;;
50012;SDS011;35901;48.694;9.476;2023-03-19T01:18:20;9.57;;;7.87;;
50012;SDS011;35901;48.694;9.476;2023-03-19T01:20:46;9.00;;;7.60;;
50012;SDS011;35901;48.694;9.476;2023-03-19T01:23:12;9.57;;;7.40;;
50012;SDS011;35901;48.694;9.476;2023-03-19T01:25:38;8.07;;;7.27;;
50012;SDS011;35901;48.694;9.476;2023-03-19T01:28:04;8.10;;;7.10;;
50012;SDS011;35901;48.694;9.476;2023-03-19T01:30:32;7.80;;;6.07;;
50012;SDS011;35901;48.694;9.476;2023-03-19T01:33:22;10.27;;;6.80;;
50012;SDS011;35901;48.694;9.476;2023-03-19T01:36:11;10.27;;;7.10;;
50012;SDS011;35901;48.694;9.476;2023-03-19T01:38:50;8.90;;;6.67;;
50012;SDS011;35901;48.694;9.476;2023-03-19T01:41:16;8.87;;;7.10;;
50012;SDS011;35901;48.694;9.476;2023-03-19T01:43:43;7.97;;;6.40;;
50012;SDS011;35901;48.694;9.476;2023-03-19T01:46:30;6.50;;;5.77;;
50012;SDS011;35901;48.694;9.476;2023-03-19T01:49:17;8.57;;;6.47;;
50012;SDS011;35901;48.694;9.476;2023-03-19T01:51:51;6.60;;;5.90;;
50012;SDS011;35901;48.694;9.476;2023-03-19T01:54:40;6.20;;;5.47;;
50012;SDS011;35901;48.694;9.476;2023-03-19T01:57:30;8.97;;;6.50;;
50012;SDS011;35901;48.694;9.476;2023-03-19T02:00:03;7.03;;;6.10;;
50012;SDS011;35901;48.694;9.476;2023-03-19T02:02:45;8.00;;;6.80;;
50012;SDS011;35901;48.694;9.476;2023-03-19T02:05:32;8.67;;;6.50;;
50012;SDS011;35901;48.694;9.476;2023-03-19T02:08:05;10.47;;;6.80;;
50012;SDS011;35901;48.694;9.476;2023-03-19T02:10:34;8.23;;;6.83;;
50012;SDS011;35901;48.694;9.476;2023-03-19T02:13:00;8.80;;;6.80;;
50012;SDS011;35901;48.694;9.476;2023-03-19T02:15:26;8.23;;;6.37;;
50012;SDS011;35901;48.694;9.476;2023-03-19T02:17:52;8.40;;;7.60;;
50012;SDS011;35901;48.694;9.476;2023-03-19T02:28:06;9.00;;;7.40;;
50012;SDS011;35901;48.694;9.476;2023-03-19T02:30:34;8.00;;;7.20;;
50012;SDS011;35901;48.694;9.476;2023-03-19T02:33:05;7.90;;;7.10;;
50012;SDS011;35901;48.694;9.476;2023-03-19T02:35:31;7.47;;;6.77;;
50012;SDS011;35901;48.694;9.476;2023-03-19T02:37:59;9.47;;;7.03;;
50012;SDS011;35901;48.694;9.476;2023-03-19T02:40:30;8.83;;;7.20;;
50012;SDS011;35901;48.694;9.476;2023-03-19T02:43:05;8.20;;;7.17;;
50012;SDS011;35901;48.694;9.476;2023-03-19T02:45:31;8.30;;;7.33;;
50012;SDS011;35901;48.694;9.476;2023-03-19T02:47:57;9.47;;;7.43;;
50012;SDS011;35901;48.694;9.476;2023-03-19T02:50:24;8.33;;;6.87;;
50012;SDS011;35901;48.694;9.476;2023-03-19T02:52:50;7.70;;;6.87;;
50012;SDS011;35901;48.694;9.476;2023-03-19T02:55:16;7.40;;;6.60;;
50012;SDS011;35901;48.694;9.476;2023-03-19T02:57:43;10.33;;;6.87;;
50012;SDS011;35901;48.694;9.476;2023-03-19T03:00:09;9.70;;;6.93;;
50012;SDS011;35901;48.694;9.476;2023-03-19T03:02:36;6.53;;;5.70;;
50012;SDS011;35901;48.694;9.476;2023-03-19T03:05:03;6.63;;;5.73;;
50012;SDS011;35901;48.694;9.476;2023-03-19T03:07:30;7.47;;;6.47;;
50012;SDS011;35901;48.694;9.476;2023-03-19T03:09:56;8.77;;;6.30;;
50012;SDS011;35901;48.694;9.476;2023-03-19T03:12:23;8.40;;;6.10;;
50012;SDS011;35901;48.694;9.476;2023-03-19T03:14:48;9.60;;;7.00;;
50012;SDS011;35901;48.694;9.476;2023-03-19T03:17:14;10.70;;;7.07;;
50012;SDS011;35901;48.694;9.476;2023-03-19T03:19:40;7.90;;;7.10;;
50012;SDS011;35901;48.694;9.476;2023-03-19T03:22:06;6.83;;;5.73;;
50012;SDS011;35901;48.694;9.476;2023-03-19T03:24:32;6.97;;;5.13;;
50012;SDS011;35901;48.694;9.476;2023-03-19T03:26:57;6.77;;;5.00;;
50012;SDS011;35901;48.694;9.476;2023-03-19T03:29:23;6.57;;;4.77;;
50012;SDS011;35901;48.694;9.476;2023-03-19T03:31:49;7.07;;;4.60;;
50012;SDS011;35901;48.694;9.476;2023-03-19T03:34:16;5.73;;;4.77;;
50012;SDS011;35901;48.694;9.476;2023-03-19T03:36:42;7.83;;;5.20;;
50012;SDS011;35901;48.694;9.476;2023-03-19T03:39:07;6.73;;;5.53;;
50012;SDS011;35901;48.694;9.476;2023-03-19T03:41:33;6.10;;;5.50;;
50012;SDS011;35901;48.694;9.476;2023-03-19T03:44:00;7.60;;;5.80;;
50012;SDS011;35901;48.694;9.476;2023-03-19T03:46:26;8.43;;;5.73;;
50012;SDS011;35901;48.694;9.476;2023-03-19T03:48:52;7.67;;;5.80;;
50012;SDS011;35901;48.694;9.476;2023-03-19T03:51:18;9.13;;;6.20;;
50012;SDS011;35901;48.694;9.476;2023-03-19T03:53:44;8.10;;;5.40;;
50012;SDS011;35901;48.694;9.476;2023-03-19T03:56:11;5.50;;;5.00;;
50012;SDS011;35901;48.694;9.476;2023-03-19T03:58:36;8.63;;;6.13;;
50012;SDS011;35901;48.694;9.476;2023-03-19T04:01:02;7.53;;;6.30;;
50012;SDS011;35901;48.694;9.476;2023-03-19T04:03:29;7.70;;;6.40;;
50012;SDS011;35901;48.694;9.476;2023-03-19T04:05:55;10.50;;;7.13;;
50012;SDS011;35901;48.694;9.476;2023-03-19T04:08:21;10.07;;;7.93;;
50012;SDS011;35901;48.694;9.476;2023-03-19T04:10:47;9.50;;;7.07;;
50012;SDS011;35901;48.694;9.476;2023-03-19T04:13:13;9.30;;;8.40;;
50012;SDS011;35901;48.694;9.476;2023-03-19T04:15:41;10.13;;;9.10;;
50012;SDS011;35901;48.694;9.476;2023-03-19T04:18:08;12.10;;;9.07;;
50012;SDS011;35901;48.694;9.476;2023-03-19T04:20:34;11.70;;;9.63;;
50012;SDS011;35901;48.694;9.476;2023-03-19T04:23:00;12.20;;;10.73;;
50012;SDS011;35901;48.694;9.476;2023-03-19T04:25:27;12.03;;;10.70;;
50012;SDS011;35901;48.694;9.476;2023-03-19T04:27:55;11.77;;;10.50;;
50012;SDS011;35901;48.694;9.476;2023-03-19T04:30:22;10.57;;;9.47;;
50012;SDS011;35901;48.694;9.476;2023-03-19T04:32:48;11.33;;;10.23;;
50012;SDS011;35901;48.694;9.476;2023-03-19T04:35:14;12.83;;;10.33;;
50012;SDS011;35901;48.694;9.476;2023-03-19T04:37:40;10.13;;;9.07;;
50012;SDS011;35901;48.694;9.476;2023-03-19T04:40:12;11.20;;;10.10;;
50012;SDS011;35901;48.694;9.476;2023-03-19T04:42:39;12.63;;;10.27;;
50012;SDS011;35901;48.694;9.476;2023-03-19T04:45:10;14.00;;;9.87;;
50012;SDS011;35901;48.694;9.476;2023-03-19T04:47:36;11.60;;;9.90;;
50012;SDS011;35901;48.694;9.476;2023-03-19T04:50:02;11.23;;;10.03;;
50012;SDS011;35901;48.694;9.476;2023-03-19T04:52:32;11.00;;;9.60;;
50012;SDS011;35901;48.694;9.476;2023-03-19T04:54:57;11.83;;;10.10;;
50012;SDS011;35901;48.694;9.476;2023-03-19T04:57:23;11.43;;;10.23;;
50012;SDS011;35901;48.694;9.476;2023-03-19T04:59:51;12.47;;;10.40;;
50012;SDS011;35901;48.694;9.476;2023-03-19T05:02:19;13.30;;;11.17;;
50012;SDS011;35901;48.694;9.476;2023-03-19T05:04:46;11.57;;;10.37;;
50012;SDS011;35901;48.694;9.476;2023-03-19T05:07:13;10.27;;;9.27;;
50012;SDS011;35901;48.694;9.476;2023-03-19T05:09:40;11.47;;;10.33;;
50012;SDS011;35901;48.694;9.476;2023-03-19T05:12:10;14.47;;;10.67;;
50012;SDS011;35901;48.694;9.476;2023-03-19T05:14:42;12.60;;;10.67;;
50012;SDS011;35901;48.694;9.476;2023-03-19T05:17:23;12.30;;;10.00;;
50012;SDS011;35901;48.694;9.476;2023-03-19T05:20:12;11.90;;;10.60;;
50012;SDS011;35901;48.694;9.476;2023-03-19T05:22:45;13.50;;;11.10;;
50012;SDS011;35901;48.694;9.476;2023-03-19T05:25:13;12.13;;;9.70;;
50012;SDS011;35901;48.694;9.476;2023-03-19T05:27:41;11.10;;;10.00;;
50012;SDS011;35901;48.694;9.476;2023-03-19T05:30:15;11.80;;;10.70;;
50012;SDS011;35901;48.694;9.476;2023-03-19T05:32:42;10.73;;;9.63;;
50012;SDS011;35901;48.694;9.476;2023-03-19T05:35:14;12.67;;;10.40;;
50012;SDS011;35901;48.694;9.476;2023-03-19T05:37:40;11.67;;;10.40;;
50012;SDS011;35901;48.694;9.476;2023-03-19T05:40:06;11.20;;;10.10;;
50012;SDS011;35901;48.694;9.476;2023-03-19T05:42:33;11.90;;;10.73;;
50012;SDS011;35901;48.694;9.476;2023-03-19T05:44:59;11.87;;;10.60;;
50012;SDS011;35901;48.694;9.476;2023-03-19T05:47:31;11.97;;;10.53;;
50012;SDS011;35901;48.694;9.476;2023-03-19T05:49:58;11.90;;;10.70;;
50012;SDS011;35901;48.694;9.476;2023-03-19T05:52:23;13.10;;;11.07;;
50012;SDS011;35901;48.694;9.476;2023-03-19T05:54:51;10.80;;;9.70;;
50012;SDS011;35901;48.694;9.476;2023-03-19T05:57:43;12.17;;;10.43;;
50012;SDS011;35901;48.694;9.476;2023-03-19T06:00:22;11.23;;;10.10;;
50012;SDS011;35901;48.694;9.476;2023-03-19T06:02:48;11.73;;;10.23;;
50012;SDS011;35901;48.694;9.476;2023-03-19T06:05:24;10.40;;;9.03;;
50012;SDS011;35901;48.694;9.476;2023-03-19T06:07:53;10.23;;;9.00;;
50012;SDS011;35901;48.694;9.476;2023-03-19T06:10:29;11.87;;;10.63;;
50012;SDS011;35901;48.694;9.476;2023-03-19T06:12:57;12.90;;;10.50;;
50012;SDS011;35901;48.694;9.476;2023-03-19T06:15:36;11.87;;;10.67;;
50012;SDS011;35901;48.694;9.476;2023-03-19T06:18:29;11.47;;;10.23;;
50012;SDS011;35901;48.694;9.476;2023-03-19T06:20:55;12.97;;;10.37;;
50012;SDS011;35901;48.694;9.476;2023-03-19T06:23:20;12.07;;;10.77;;
50012;SDS011;35901;48.694;9.476;2023-03-19T06:25:47;14.07;;;11.50;;
50012;SDS011;35901;48.694;9.476;2023-03-19T06:28:13;13.30;;;11.93;;
50012;SDS011;35901;48.694;9.476;2023-03-19T06:30:42;16.13;;;12.87;;
50012;SDS011;35901;48.694;9.476;2023-03-19T06:33:28;15.33;;;12.33;;
50012;SDS011;35901;48.694;9.476;2023-03-19T06:35:57;14.57;;;13.10;;
50012;SDS011;35901;48.694;9.476;2023-03-19T06:38:23;15.13;;;13.63;;
50012;SDS011;35901;48.694;9.476;2023-03-19T06:40:49;18.57;;;15.43;;
50012;SDS011;35901;48.694;9.476;2023-03-19T06:43:15;15.77;;;14.10;;
50012;SDS011;35901;48.694;9.476;2023-03-19T06:45:41;15.60;;;13.93;;
50012;SDS011;35901;48.694;9.476;2023-03-19T06:48:07;14.53;;;13.13;;
50012;SDS011;35901;48.694;9.476;2023-03-19T06:50:32;15.23;;;13.73;;
50012;SDS011;35901;48.694;9.476;2023-03-19T06:52:58;19.60;;;15.40;;
50012;SDS011;35901;48.694;9.476;2023-03-19T06:55:23;15.60;;;13.90;;
50012;SDS011;35901;48.694;9.476;2023-03-19T06:57:49;16.87;;;14.20;;
50012;SDS011;35901;48.694;9.476;2023-03-19T07:00:15;15.80;;;13.27;;
50012;SDS011;35901;48.694;9.476;2023-03-19T07:02:42;15.67;;;14.17;;
50012;SDS011;35901;48.694;9.476;2023-03-19T07:05:08;14.73;;;13.23;;
50012;SDS011;35901;48.694;9.476;2023-03-19T07:07:34;14.00;;;12.60;;
50012;SDS011;35901;48.694;9.476;2023-03-19T07:10:00;13.00;;;11.40;;
50012;SDS011;35901;48.694;9.476;2023-03-19T07:12:26;13.10;;;11.43;;
50012;SDS011;35901;48.694;9.476;2023-03-19T07:14:55;13.37;;;11.03;;
50012;SDS011;35901;48.694;9.476;2023-03-19T07:17:21;13.50;;;12.00;;
50012;SDS011;35901;48.694;9.476;2023-03-19T07:19:47;14.67;;;13.07;;
50012;SDS011;35901;48.694;9.476;2023-03-19T07:22:13;12.73;;;11.50;;
50012;SDS011;35901;48.694;9.476;2023-03-19T07:24:38;12.50;;;11.20;;
50012;SDS011;35901;48.694;9.476;2023-03-19T07:27:04;11.70;;;10.60;;
50012;SDS011;35901;48.694;9.476;2023-03-19T07:29:30;12.17;;;10.93;;
50012;SDS011;35901;48.694;9.476;2023-03-19T07:31:56;11.87;;;10.47;;
50012;SDS011;35901;48.694;9.476;2023-03-19T07:34:21;11.53;;;9.63;;
50012;SDS011;35901;48.694;9.476;2023-03-19T07:36:47;13.20;;;10.13;;
50012;SDS011;35901;48.694;9.476;2023-03-19T07:39:13;11.43;;;10.27;;
50012;SDS011;35901;48.694;9.476;2023-03-19T07:41:39;11.17;;;10.07;;
50012;SDS011;35901;48.694;9.476;2023-03-19T07:44:12;10.90;;;9.90;;
50012;SDS011;35901;48.694;9.476;2023-03-19T07:46:38;11.40;;;10.20;;
50012;SDS011;35901;48.694;9.476;2023-03-19T07:49:04;10.60;;;9.50;;
50012;SDS011;35901;48.694;9.476;2023-03-19T07:51:29;10.17;;;9.20;;
50012;SDS011;35901;48.694;9.476;2023-03-19T07:53:55;10.60;;;9.50;;
50012;SDS011;35901;48.694;9.476;2023-03-19T07:56:21;9.60;;;8.73;;
50012;SDS011;35901;48.694;9.476;2023-03-19T07:58:47;9.83;;;8.83;;
50012;SDS011;35901;48.694;9.476;2023-03-19T08:01:12;9.60;;;8.60;;
50012;SDS011;35901;48.694;9.476;2023-03-19T08:03:38;9.70;;;8.70;;
50012;SDS011;35901;48.694;9.476;2023-03-19T08:06:04;10.40;;;9.27;;
50012;SDS011;35901;48.694;9.476;2023-03-19T08:08:30;9.87;;;8.53;;
50012;SDS011;35901;48.694;9.476;2023-03-19T08:10:59;9.10;;;8.20;;
50012;SDS011;35901;48.694;9.476;2023-03-19T08:13:25;8.40;;;7.57;;
50012;SDS011;35901;48.694;9.476;2023-03-19T08:15:51;8.17;;;7.37;;
50012;SDS011;35901;48.694;9.476;2023-03-19T08:18:17;9.20;;;6.87;;
50012;SDS011;35901;48.694;9.476;2023-03-19T08:20:44;7.43;;;6.50;;
50012;SDS011;35901;48.694;9.476;2023-03-19T08:23:11;6.47;;;5.70;;
50012;SDS011;35901;48.694;9.476;2023-03-19T08:25:37;5.93;;;5.43;;
50012;SDS011;35901;48.694;9.476;2023-03-19T08:28:03;5.57;;;4.93;;
50012;SDS011;35901;48.694;9.476;2023-03-19T08:30:29;5.60;;;5.00;;
50012;SDS011;35901;48.694;9.476;2023-03-19T08:32:56;5.33;;;4.53;;
50012;SDS011;35901;48.694;9.476;2023-03-19T08:35:21;4.97;;;4.43;;
50012;SDS011;35901;48.694;9.476;2023-03-19T08:37:48;4.50;;;4.10;;
50012;SDS011;35901;48.694;9.476;2023-03-19T08:40:13;5.73;;;4.67;;
50012;SDS011;35901;48.694;9.476;2023-03-19T08:42:39;5.20;;;4.43;;
50012;SDS011;35901;48.694;9.476;2023-03-19T08:45:10;4.63;;;4.23;;
50012;SDS011;35901;48.694;9.476;2023-03-19T08:47:37;6.70;;;4.40;;
50012;SDS011;35901;48.694;9.476;2023-03-19T08:50:03;4.83;;;4.33;;
50012;SDS011;35901;48.694;9.476;2023-03-19T08:52:30;4.30;;;3.90;;
50012;SDS011;35901;48.694;9.476;2023-03-19T08:54:55;4.77;;;4.30;;
50012;SDS011;35901;48.694;9.476;2023-03-19T08:57:21;4.30;;;3.90;;
50012;SDS011;35901;48.694;9.476;2023-03-19T08:59:47;5.20;;;4.70;;
50012;SDS011;35901;48.694;9.476;2023-03-19T09:02:12;5.37;;;4.87;;
50012;SDS011;35901;48.694;9.476;2023-03-19T09:04:41;5.03;;;4.53;;
50012;SDS011;35901;48.694;9.476;2023-03-19T09:07:08;5.70;;;4.73;;
50012;SDS011;35901;48.694;9.476;2023-03-19T09:09:39;4.73;;;4.30;;
50012;SDS011;35901;48.694;9.476;2023-03-19T09:12:07;4.63;;;4.23;;
50012;SDS011;35901;48.694;9.476;2023-03-19T09:14:34;4.20;;;3.83;;
50012;SDS011;35901;48.694;9.476;2023-03-19T09:17:00;5.07;;;3.70;;
50012;SDS011;35901;48.694;9.476;2023-03-19T09:19:26;3.87;;;3.30;;
50012;SDS011;35901;48.694;9.476;2023-03-19T09:21:52;4.17;;;3.10;;
50012;SDS011;35901;48.694;9.476;2023-03-19T09:24:18;3.30;;;2.97;;
50012;SDS011;35901;48.694;9.476;2023-03-19T09:26:44;4.53;;;3.10;;
50012;SDS011;35901;48.694;9.476;2023-03-19T09:29:10;3.50;;;3.20;;
50012;SDS011;35901;48.694;9.476;2023-03-19T09:31:37;4.27;;;3.30;;
50012;SDS011;35901;48.694;9.476;2023-03-19T09:34:03;2.90;;;2.70;;
50012;SDS011;35901;48.694;9.476;2023-03-19T09:36:31;3.13;;;2.73;;
50012;SDS011;35901;48.694;9.476;2023-03-19T09:38:57;4.33;;;2.50;;
50012;SDS011;35901;48.694;9.476;2023-03-19T09:44:10;1.90;;;1.70;;
50012;SDS011;35901;48.694;9.476;2023-03-19T09:51:55;2.00;;;1.80;;
50012;SDS011;35901;48.694;9.476;2023-03-19T09:54:44;2.17;;;1.83;;
50012;SDS011;35901;48.694;9.476;2023-03-19T09:57:12;2.30;;;2.00;;
50012;SDS011;35901;48.694;9.476;2023-03-19T09:59:38;2.07;;;1.80;;
50012;SDS011;35901;48.694;9.476;2023-03-19T10:05:28;2.30;;;2.10;;
50012;SDS011;35901;48.694;9.476;2023-03-19T10:15:51;1.87;;;1.77;;
50012;SDS011;35901;48.694;9.476;2023-03-19T10:18:24;2.50;;;1.70;;
50012;SDS011;35901;48.694;9.476;2023-03-19T10:21:02;2.17;;;1.83;;
50012;SDS011;35901;48.694;9.476;2023-03-19T10:23:46;1.80;;;1.70;;
50012;SDS011;35901;48.694;9.476;2023-03-19T10:26:35;2.57;;;1.60;;
50012;SDS011;35901;48.694;9.476;2023-03-19T10:36:59;2.37;;;1.60;;
50012;SDS011;35901;48.694;9.476;2023-03-19T10:39:28;2.57;;;1.60;;
50012;SDS011;35901;48.694;9.476;2023-03-19T10:44:50;1.70;;;1.60;;
50012;SDS011;35901;48.694;9.476;2023-03-19T10:47:24;2.33;;;1.93;;
50012;SDS011;35901;48.694;9.476;2023-03-19T10:49:50;3.17;;;1.90;;
50012;SDS011;35901;48.694;9.476;2023-03-19T10:52:23;2.07;;;1.80;;
50012;SDS011;35901;48.694;9.476;2023-03-19T10:54:54;2.43;;;1.70;;
50012;SDS011;35901;48.694;9.476;2023-03-19T10:57:26;2.00;;;1.70;;
50012;SDS011;35901;48.694;9.476;2023-03-19T10:59:53;2.57;;;1.80;;
50012;SDS011;35901;48.694;9.476;2023-03-19T11:02:20;2.93;;;1.80;;
50012;SDS011;35901;48.694;9.476;2023-03-19T11:04:48;2.87;;;1.70;;
50012;SDS011;35901;48.694;9.476;2023-03-19T11:07:30;2.70;;;1.57;;
50012;SDS011;35901;48.694;9.476;2023-03-19T11:09:57;1.70;;;1.60;;
50012;SDS011;35901;48.694;9.476;2023-03-19T11:12:32;2.30;;;1.83;;
50012;SDS011;35901;48.694;9.476;2023-03-19T11:14:59;2.50;;;1.63;;
50012;SDS011;35901;48.694;9.476;2023-03-19T11:17:38;2.03;;;1.70;;
50012;SDS011;35901;48.694;9.476;2023-03-19T11:22:51;3.43;;;2.00;;
50012;SDS011;35901;48.694;9.476;2023-03-19T11:25:24;2.27;;;1.90;;
50012;SDS011;35901;48.694;9.476;2023-03-19T11:36:12;2.03;;;1.83;;
50012;SDS011;35901;48.694;9.476;2023-03-19T11:38:46;2.40;;;1.87;;
50012;SDS011;35901;48.694;9.476;2023-03-19T11:42:18;2.50;;;1.87;;
50012;SDS011;35901;48.694;9.476;2023-03-19T11:46:53;2.07;;;1.80;;
50012;SDS011;35901;48.694;9.476;2023-03-19T11:49:40;4.20;;;2.30;;
50012;SDS011;35901;48.694;9.476;2023-03-19T11:52:17;3.13;;;2.13;;
50012;SDS011;35901;48.694;9.476;2023-03-19T11:55:16;2.20;;;1.90;;
50012;SDS011;35901;48.694;9.476;2023-03-19T12:00:46;2.73;;;1.97;;
50012;SDS011;35901;48.694;9.476;2023-03-19T12:13:36;2.43;;;2.20;;
50012;SDS011;35901;48.694;9.476;2023-03-19T12:22:12;2.57;;;1.93;;
50012;SDS011;35901;48.694;9.476;2023-03-19T12:25:03;2.37;;;1.90;;
50012;SDS011;35901;48.694;9.476;2023-03-19T12:30:44;2.47;;;1.90;;
50012;SDS011;35901;48.694;9.476;2023-03-19T12:36:21;2.30;;;1.80;;
50012;SDS011;35901;48.694;9.476;2023-03-19T12:38:51;3.17;;;1.77;;
50012;SDS011;35901;48.694;9.476;2023-03-19T12:41:25;4.53;;;2.10;;
50012;SDS011;35901;48.694;9.476;2023-03-19T12:44:01;2.80;;;1.60;;
50012;SDS011;35901;48.694;9.476;2023-03-19T12:46:35;1.80;;;1.70;;
50012;SDS011;35901;48.694;9.476;2023-03-19T12:49:19;1.60;;;1.50;;
50012;SDS011;35901;48.694;9.476;2023-03-19T12:52:09;3.23;;;1.97;;
50012;SDS011;35901;48.694;9.476;2023-03-19T12:54:58;2.00;;;1.70;;
50012;SDS011;35901;48.694;9.476;2023-03-19T12:57:36;2.10;;;1.80;;
50012;SDS011;35901;48.694;9.476;2023-03-19T13:00:12;2.30;;;1.93;;
50012;SDS011;35901;48.694;9.476;2023-03-19T13:05:41;2.17;;;1.90;;
50012;SDS011;35901;48.694;9.476;2023-03-19T13:08:30;2.00;;;1.80;;
50012;SDS011;35901;48.694;9.476;2023-03-19T13:11:02;3.47;;;1.90;;
50012;SDS011;35901;48.694;9.476;2023-03-19T13:16:40;2.07;;;1.87;;
50012;SDS011;35901;48.694;9.476;2023-03-19T13:19:32;3.37;;;2.00;;
50012;SDS011;35901;48.694;9.476;2023-03-19T13:22:08;3.13;;;1.90;;
50012;SDS011;35901;48.694;9.476;2023-03-19T13:24:37;2.00;;;1.60;;
50012;SDS011;35901;48.694;9.476;2023-03-19T13:27:06;1.70;;;1.60;;
50012;SDS011;35901;48.694;9.476;2023-03-19T13:29:36;2.77;;;1.83;;
50012;SDS011;35901;48.694;9.476;2023-03-19T13:32:07;1.90;;;1.57;;
50012;SDS011;35901;48.694;9.476;2023-03-19T13:35:07;2.93;;;2.10;;
50012;SDS011;35901;48.694;9.476;2023-03-19T13:37:40;2.97;;;1.87;;
50012;SDS011;35901;48.694;9.476;2023-03-19T13:46:38;1.60;;;1.50;;
50012;SDS011;35901;48.694;9.476;2023-03-19T13:53:53;3.13;;;1.90;;
50012;SDS011;35901;48.694;9.476;2023-03-19T13:56:55;1.97;;;1.87;;
50012;SDS011;35901;48.694;9.476;2023-03-19T13:59:39;2.63;;;1.80;;
50012;SDS011;35901;48.694;9.476;2023-03-19T14:04:49;3.60;;;2.17;;
50012;SDS011;35901;48.694;9.476;2023-03-19T14:07:27;2.50;;;1.90;;
50012;SDS011;35901;48.694;9.476;2023-03-19T14:12:38;2.37;;;2.17;;
50012;SDS011;35901;48.694;9.476;2023-03-19T14:17:38;2.30;;;2.10;;
50012;SDS011;35901;48.694;9.476;2023-03-19T14:29:06;2.53;;;1.97;;
50012;SDS011;35901;48.694;9.476;2023-03-19T14:31:17;2.87;;;1.70;;
50012;SDS011;35901;48.694;9.476;2023-03-19T14:33:45;2.13;;;1.80;;
50012;SDS011;35901;48.694;9.476;2023-03-19T14:36:27;1.80;;;1.70;;
50012;SDS011;35901;48.694;9.476;2023-03-19T14:41:22;2.77;;;1.90;;
50012;SDS011;35901;48.694;9.476;2023-03-19T14:47:02;2.93;;;2.00;;
50012;SDS011;35901;48.694;9.476;2023-03-19T14:53:01;1.97;;;1.67;;
50012;SDS011;35901;48.694;9.476;2023-03-19T14:55:38;1.97;;;1.77;;
50012;SDS011;35901;48.694;9.476;2023-03-19T14:58:08;2.63;;;2.00;;
50012;SDS011;35901;48.694;9.476;2023-03-19T15:00:40;2.23;;;1.70;;
50012;SDS011;35901;48.694;9.476;2023-03-19T15:03:17;2.80;;;1.80;;
50012;SDS011;35901;48.694;9.476;2023-03-19T15:05:46;2.47;;;1.80;;
50012;SDS011;35901;48.694;9.476;2023-03-19T15:08:19;1.80;;;1.70;;
50012;SDS011;35901;48.694;9.476;2023-03-19T15:16:01;3.60;;;2.20;;
50012;SDS011;35901;48.694;9.476;2023-03-19T15:18:27;3.60;;;2.00;;
50012;SDS011;35901;48.694;9.476;2023-03-19T15:20:54;2.60;;;1.93;;
50012;SDS011;35901;48.694;9.476;2023-03-19T15:23:21;2.10;;;1.90;;
50012;SDS011;35901;48.694;9.476;2023-03-19T15:25:59;3.93;;;1.60;;
50012;SDS011;35901;48.694;9.476;2023-03-19T15:28:27;3.40;;;1.73;;
50012;SDS011;35901;48.694;9.476;2023-03-19T15:31:01;2.00;;;1.60;;
50012;SDS011;35901;48.694;9.476;2023-03-19T15:33:32;1.70;;;1.60;;
50012;SDS011;35901;48.694;9.476;2023-03-19T15:39:03;1.90;;;1.40;;
50012;SDS011;35901;48.694;9.476;2023-03-19T15:41:32;2.20;;;1.90;;
50012;SDS011;35901;48.694;9.476;2023-03-19T15:44:04;3.67;;;1.90;;
50012;SDS011;35901;48.694;9.476;2023-03-19T15:46:33;2.03;;;1.93;;
50012;SDS011;35901;48.694;9.476;2023-03-19T15:49:24;2.47;;;2.00;;
50012;SDS011;35901;48.694;9.476;2023-03-19T15:51:50;2.33;;;2.13;;
50012;SDS011;35901;48.694;9.476;2023-03-19T15:54:19;2.67;;;2.20;;
50012;SDS011;35901;48.694;9.476;2023-03-19T15:56:46;2.13;;;1.60;;
50012;SDS011;35901;48.694;9.476;2023-03-19T15:59:15;2.33;;;1.90;;
50012;SDS011;35901;48.694;9.476;2023-03-19T16:01:42;1.70;;;1.60;;
50012;SDS011;35901;48.694;9.476;2023-03-19T16:04:12;3.27;;;1.83;;
50012;SDS011;35901;48.694;9.476;2023-03-19T16:06:41;2.33;;;2.10;;
50012;SDS011;35901;48.694;9.476;2023-03-19T16:09:13;3.17;;;2.60;;
50012;SDS011;35901;48.694;9.476;2023-03-19T16:11:43;2.77;;;2.57;;
50012;SDS011;35901;48.694;9.476;2023-03-19T16:14:14;3.03;;;2.70;;
50012;SDS011;35901;48.694;9.476;2023-03-19T16:16:48;2.87;;;2.57;;
50012;SDS011;35901;48.694;9.476;2023-03-19T16:19:34;2.80;;;2.60;;
50012;SDS011;35901;48.694;9.476;2023-03-19T16:22:09;2.60;;;2.40;;
50012;SDS011;35901;48.694;9.476;2023-03-19T16:24:41;2.60;;;2.10;;
50012;SDS011;35901;48.694;9.476;2023-03-19T16:27:10;2.37;;;2.10;;
50012;SDS011;35901;48.694;9.476;2023-03-19T16:29:42;3.73;;;2.50;;
50012;SDS011;35901;48.694;9.476;2023-03-19T16:32:16;2.60;;;2.40;;
50012;SDS011;35901;48.694;9.476;2023-03-19T16:34:54;3.17;;;2.40;;
50012;SDS011;35901;48.694;9.476;2023-03-19T16:37:32;3.70;;;2.40;;
50012;SDS011;35901;48.694;9.476;2023-03-19T16:42:39;2.73;;;2.53;;
50012;SDS011;35901;48.694;9.476;2023-03-19T16:45:28;2.70;;;2.30;;
50012;SDS011;35901;48.694;9.476;2023-03-19T16:47:55;2.30;;;2.20;;
50012;SDS011;35901;48.694;9.476;2023-03-19T16:50:36;3.23;;;2.30;;
50012;SDS011;35901;48.694;9.476;2023-03-19T16:53:11;2.40;;;2.20;;
50012;SDS011;35901;48.694;9.476;2023-03-19T16:55:45;2.37;;;2.10;;
50012;SDS011;35901;48.694;9.476;2023-03-19T16:58:12;2.50;;;2.30;;
50012;SDS011;35901;48.694;9.476;2023-03-19T17:00:40;2.63;;;2.43;;
50012;SDS011;35901;48.694;9.476;2023-03-19T17:03:12;2.30;;;2.10;;
50012;SDS011;35901;48.694;9.476;2023-03-19T17:05:39;2.57;;;2.37;;
50012;SDS011;35901;48.694;9.476;2023-03-19T17:08:05;3.40;;;2.53;;